createdAt,value
2022-10-17T00:00:19.082Z,63.00
2022-10-17T00:03:31.771Z,55.50
2022-10-17T00:06:11.844Z,60.92
2022-10-17T00:08:40.892Z,73.78
2022-10-17T00:11:17.624Z,55.97
2022-10-17T00:13:45.736Z,55.58
2022-10-17T00:16:13.698Z,51.97
2022-10-17T00:18:40.737Z,55.90
2022-10-17T00:21:16.579Z,52.45
2022-10-17T00:23:43.913Z,45.55
2022-10-17T00:26:11.336Z,56.90
2022-10-17T00:28:38.482Z,51.53
2022-10-17T00:31:07.578Z,51.72
2022-10-17T00:33:35.835Z,53.28
2022-10-17T00:36:09.291Z,43.83
2022-10-17T00:38:37.239Z,49.83
2022-10-17T00:41:04.841Z,45.65
2022-10-17T00:43:56.032Z,47.60
2022-10-17T00:46:26.721Z,39.45
2022-10-17T00:48:55.521Z,46.45
2022-10-17T00:51:40.061Z,60.03
2022-10-17T00:54:08.976Z,52.38
2022-10-17T00:56:36.330Z,52.15
2022-10-17T00:59:47.760Z,47.63
2022-10-17T01:02:19.201Z,45.38
2022-10-17T01:04:51.107Z,59.47
2022-10-17T01:07:18.449Z,44.45
2022-10-17T01:09:46.845Z,60.92
2022-10-17T01:12:22.992Z,51.63
2022-10-17T01:15:23.831Z,53.70
2022-10-17T01:17:56.805Z,51.90
2022-10-17T01:21:01.530Z,50.22
2022-10-17T01:23:58.716Z,44.70
2022-10-17T01:26:52.761Z,49.15
2022-10-17T01:29:57.628Z,66.40
2022-10-17T01:32:47.472Z,57.35
2022-10-17T01:35:25.759Z,66.60
2022-10-17T01:38:11.635Z,71.75
2022-10-17T01:40:56.891Z,74.95
2022-10-17T01:43:40.337Z,57.15
2022-10-17T01:46:22.725Z,50.33
2022-10-17T01:48:55.098Z,44.08
2022-10-17T01:51:42.711Z,52.28
2022-10-17T01:54:15.283Z,45.78
2022-10-17T01:56:44.640Z,39.65
2022-10-17T01:59:22.499Z,43.28
2022-10-17T02:01:53.676Z,51.03
2022-10-17T02:04:29.771Z,110.55
2022-10-17T02:07:22.175Z,88.45
2022-10-17T02:09:49.229Z,53.40
2022-10-17T02:12:40.378Z,51.85
2022-10-17T02:15:32.912Z,64.70
2022-10-17T02:18:30.750Z,59.25
2022-10-17T02:21:06.959Z,45.92
2022-10-17T02:23:54.130Z,44.95
2022-10-17T02:27:14.526Z,49.35
2022-10-17T02:30:03.377Z,46.72
2022-10-17T02:32:48.103Z,43.08
2022-10-17T02:35:22.372Z,94.85
2022-10-17T02:37:51.813Z,76.63
2022-10-17T02:40:22.822Z,52.40
2022-10-17T02:42:54.464Z,95.40
2022-10-17T02:45:24.962Z,104.32
2022-10-17T02:48:09.676Z,122.38
2022-10-17T02:50:45.219Z,104.93
2022-10-17T02:53:17.394Z,79.72
2022-10-17T02:55:53.703Z,69.68
2022-10-17T02:58:24.143Z,60.40
2022-10-17T03:00:52.402Z,60.80
2022-10-17T03:03:27.902Z,57.58
2022-10-17T03:05:55.350Z,68.90
2022-10-17T03:08:25.125Z,73.35
2022-10-17T03:10:52.369Z,64.10
2022-10-17T03:13:20.557Z,56.53
2022-10-17T03:15:47.982Z,59.65
2022-10-17T03:18:15.126Z,58.92
2022-10-17T03:20:42.615Z,50.47
2022-10-17T03:23:09.570Z,57.53
2022-10-17T03:25:37.143Z,55.85
2022-10-17T03:28:05.605Z,63.72
2022-10-17T03:30:33.524Z,93.50
2022-10-17T03:33:01.116Z,55.58
2022-10-17T03:35:28.402Z,50.00
2022-10-17T03:37:56.210Z,81.28
2022-10-17T03:40:24.876Z,125.65
2022-10-17T03:42:53.484Z,84.13
2022-10-17T03:45:20.688Z,58.40
2022-10-17T03:47:48.561Z,130.18
2022-10-17T03:50:16.155Z,295.10
2022-10-17T03:52:48.152Z,117.47
2022-10-17T03:55:16.073Z,86.55
2022-10-17T03:57:45.598Z,72.00
2022-10-17T04:00:14.878Z,77.18
2022-10-17T04:02:42.219Z,96.88
2022-10-17T04:05:15.019Z,81.35
2022-10-17T04:07:42.199Z,144.68
2022-10-17T04:10:11.042Z,134.18
2022-10-17T04:12:39.578Z,134.15
2022-10-17T04:15:07.597Z,138.80
2022-10-17T04:17:38.161Z,137.43
2022-10-17T04:20:07.498Z,131.90
2022-10-17T04:22:34.914Z,121.85
2022-10-17T04:25:02.496Z,147.43
2022-10-17T04:27:42.007Z,72.45
2022-10-17T04:30:10.057Z,69.82
2022-10-17T04:32:41.236Z,64.78
2022-10-17T04:35:14.646Z,61.38
2022-10-17T04:37:46.777Z,43.60
2022-10-17T04:40:18.609Z,39.88
2022-10-17T04:42:46.296Z,37.55
2022-10-17T04:45:17.150Z,31.23
2022-10-17T04:47:45.300Z,39.28
2022-10-17T04:50:12.606Z,63.92
2022-10-17T04:52:40.809Z,59.85
2022-10-17T04:55:09.629Z,114.95
2022-10-17T04:57:37.042Z,243.18
2022-10-17T05:00:17.343Z,258.85
2022-10-17T05:02:56.326Z,279.17
2022-10-17T05:05:23.670Z,284.85
2022-10-17T05:07:53.803Z,299.15
2022-10-17T05:10:25.335Z,217.52
2022-10-17T05:12:53.940Z,209.63
2022-10-17T05:15:24.011Z,175.32
2022-10-17T05:17:56.144Z,119.57
2022-10-17T05:20:24.806Z,93.43
2022-10-17T05:22:52.267Z,157.05
2022-10-17T05:25:20.045Z,129.68
2022-10-17T05:27:47.168Z,106.78
2022-10-17T05:30:16.189Z,107.10
2022-10-17T05:32:43.950Z,78.97
2022-10-17T05:35:11.254Z,52.05
2022-10-17T05:37:39.232Z,45.20
2022-10-17T05:40:07.474Z,42.60
2022-10-17T05:42:34.867Z,44.65
2022-10-17T05:45:02.965Z,42.88
2022-10-17T05:47:31.004Z,58.05
2022-10-17T05:49:59.220Z,62.20
2022-10-17T05:52:33.210Z,65.78
2022-10-17T05:55:10.865Z,49.35
2022-10-17T05:57:38.132Z,33.90
2022-10-17T06:00:09.788Z,42.15
2022-10-17T06:02:47.657Z,34.40
2022-10-17T06:05:16.936Z,34.10
2022-10-17T06:07:44.021Z,46.35
2022-10-17T06:10:13.364Z,44.15
2022-10-17T06:12:40.344Z,54.83
2022-10-17T06:15:08.398Z,43.17
2022-10-17T06:17:35.909Z,30.77
2022-10-17T06:20:03.714Z,32.00
2022-10-17T06:22:31.310Z,29.88
2022-10-17T06:25:00.703Z,24.67
2022-10-17T06:27:27.790Z,30.50
2022-10-17T06:29:55.077Z,32.30
2022-10-17T06:32:22.218Z,28.55
2022-10-17T06:34:51.164Z,33.78
2022-10-17T06:37:18.827Z,67.10
2022-10-17T06:39:48.586Z,41.67
2022-10-17T06:42:20.977Z,39.95
2022-10-17T06:47:43.285Z,22.88
2022-10-17T06:50:42.921Z,30.75
2022-10-17T06:53:30.680Z,29.63
2022-10-17T06:56:11.054Z,25.70
2022-10-17T06:58:55.367Z,45.45
2022-10-17T07:01:31.265Z,24.83
2022-10-17T07:04:00.500Z,40.70
2022-10-17T07:06:29.392Z,43.20
2022-10-17T07:09:01.007Z,29.70
2022-10-17T07:11:28.451Z,29.13
2022-10-17T07:13:55.447Z,24.08
2022-10-17T07:16:22.794Z,25.75
2022-10-17T07:18:59.612Z,24.40
2022-10-17T07:21:27.355Z,50.13
2022-10-17T07:23:54.332Z,31.08
2022-10-17T07:26:23.820Z,29.52
2022-10-17T07:28:53.743Z,28.38
2022-10-17T07:31:34.940Z,29.90
2022-10-17T07:34:02.346Z,28.88
2022-10-17T07:36:30.567Z,33.20
2022-10-17T07:38:59.878Z,33.67
2022-10-17T07:41:27.896Z,44.67
2022-10-17T07:43:56.878Z,51.13
2022-10-17T07:46:31.537Z,26.85
2022-10-17T07:49:00.172Z,90.55
2022-10-17T07:51:28.758Z,32.10
2022-10-17T07:53:55.926Z,31.63
2022-10-17T07:56:24.789Z,58.28
2022-10-17T07:58:52.625Z,33.30
2022-10-17T08:01:19.952Z,41.70
2022-10-17T08:03:50.709Z,72.90
2022-10-17T08:06:18.494Z,41.65
2022-10-17T08:08:45.749Z,71.60
2022-10-17T08:11:14.561Z,34.28
2022-10-17T08:13:42.152Z,39.45
2022-10-17T08:16:11.627Z,35.75
2022-10-17T08:18:40.558Z,27.65
2022-10-17T08:21:08.669Z,38.15
2022-10-17T08:23:39.450Z,35.58
2022-10-17T08:26:10.520Z,33.20
2022-10-17T08:28:39.981Z,49.70
2022-10-17T08:31:10.223Z,39.47
2022-10-17T08:33:37.665Z,36.35
2022-10-17T08:36:06.555Z,74.35
2022-10-17T08:38:36.058Z,54.38
2022-10-17T08:41:24.659Z,34.35
2022-10-17T08:44:10.732Z,33.33
2022-10-17T08:46:41.304Z,37.75
2022-10-17T08:49:41.917Z,39.95
2022-10-17T08:52:29.898Z,47.47
2022-10-17T08:54:57.013Z,41.33
2022-10-17T08:57:24.423Z,41.00
2022-10-17T08:59:54.240Z,39.95
2022-10-17T09:02:47.695Z,43.08
2022-10-17T09:05:19.355Z,49.17
2022-10-17T09:08:10.455Z,44.53
2022-10-17T09:10:56.866Z,44.88
2022-10-17T09:13:53.243Z,41.30
2022-10-17T09:16:47.362Z,47.33
2022-10-17T09:19:27.198Z,53.42
2022-10-17T09:22:00.851Z,41.22
2022-10-17T09:24:44.831Z,47.20
2022-10-17T09:27:23.738Z,37.03
2022-10-17T09:30:03.100Z,58.92
2022-10-17T09:32:30.414Z,56.30
2022-10-17T09:34:57.721Z,44.95
2022-10-17T09:37:30.933Z,51.95
2022-10-17T09:39:58.258Z,36.80
2022-10-17T09:42:28.184Z,42.45
2022-10-17T09:45:26.039Z,41.72
2022-10-17T09:48:19.980Z,30.65
2022-10-17T09:50:57.772Z,37.63
2022-10-17T09:53:41.106Z,24.55
2022-10-17T09:56:15.968Z,34.17
2022-10-17T09:58:54.348Z,21.70
2022-10-17T10:01:25.057Z,32.10
2022-10-17T10:04:11.324Z,27.50
2022-10-17T10:06:39.909Z,16.67
2022-10-17T10:09:22.394Z,42.50
2022-10-17T10:11:54.804Z,30.23
2022-10-17T10:14:23.322Z,14.98
2022-10-17T10:16:53.721Z,38.95
2022-10-17T10:19:36.906Z,17.58
2022-10-17T10:22:15.957Z,21.45
2022-10-17T10:24:43.071Z,27.05
2022-10-17T10:27:18.722Z,17.40
2022-10-17T10:29:52.885Z,22.67
2022-10-17T10:32:31.227Z,17.50
2022-10-17T10:35:03.783Z,16.92
2022-10-17T10:37:34.950Z,20.42
2022-10-17T10:40:05.078Z,19.85
2022-10-17T10:42:39.516Z,16.90
2022-10-17T10:45:23.712Z,20.23
2022-10-17T10:48:02.316Z,14.82
2022-10-17T10:50:48.233Z,15.80
2022-10-17T10:53:36.864Z,22.05
2022-10-17T10:56:22.701Z,18.52
2022-10-17T10:59:04.138Z,18.40
2022-10-17T11:01:31.099Z,27.02
2022-10-17T11:04:07.155Z,23.98
2022-10-17T11:06:38.944Z,21.13
2022-10-17T11:09:24.838Z,25.80
2022-10-17T11:12:14.865Z,21.10
2022-10-17T11:15:07.747Z,21.92
2022-10-17T11:17:55.300Z,19.33
2022-10-17T11:20:22.530Z,25.88
2022-10-17T11:22:57.925Z,25.45
2022-10-17T11:25:37.190Z,26.00
2022-10-17T11:28:14.588Z,21.70
2022-10-17T11:30:48.288Z,27.95
2022-10-17T11:33:22.170Z,25.63
2022-10-17T11:35:53.120Z,23.33
2022-10-17T11:38:38.501Z,22.55
2022-10-17T11:41:09.002Z,26.00
2022-10-17T11:43:48.345Z,24.80
2022-10-17T11:46:25.623Z,23.85
2022-10-17T11:49:13.091Z,22.33
2022-10-17T11:52:00.389Z,26.58
2022-10-17T11:54:41.337Z,23.13
2022-10-17T11:57:40.547Z,23.90
2022-10-17T12:00:40.766Z,25.80
2022-10-17T12:03:19.183Z,20.67
2022-10-17T12:05:53.180Z,26.17
2022-10-17T12:08:34.804Z,22.45
2022-10-17T12:11:24.916Z,23.63
2022-10-17T12:13:57.007Z,22.45
2022-10-17T12:16:29.846Z,26.67
2022-10-17T12:19:03.013Z,20.65
2022-10-17T12:22:01.980Z,22.05
2022-10-17T12:24:37.344Z,23.27
2022-10-17T12:27:32.494Z,19.67
2022-10-17T12:30:14.784Z,19.08
2022-10-17T12:33:06.654Z,23.52
2022-10-17T12:35:37.191Z,22.55
2022-10-17T12:38:19.517Z,17.27
2022-10-17T12:40:50.774Z,18.02
2022-10-17T12:43:17.729Z,20.40
2022-10-17T12:45:55.624Z,23.70
2022-10-17T12:48:34.783Z,23.08
2022-10-17T12:54:12.787Z,19.58
2022-10-17T12:56:44.319Z,22.48
2022-10-17T12:59:22.321Z,26.55
2022-10-17T13:01:53.495Z,23.00
2022-10-17T13:04:21.299Z,20.60
2022-10-17T13:06:59.066Z,22.27
2022-10-17T13:09:28.409Z,25.88
2022-10-17T13:11:57.892Z,23.42
2022-10-17T13:14:26.521Z,20.45
2022-10-17T13:16:59.662Z,21.42
2022-10-17T13:19:31.120Z,22.65
2022-10-17T13:22:06.895Z,21.52
2022-10-17T13:24:37.053Z,20.65
2022-10-17T13:27:06.730Z,21.13
2022-10-17T13:29:33.982Z,20.15
2022-10-17T13:32:05.795Z,27.15
2022-10-17T13:34:34.176Z,21.70
2022-10-17T13:37:10.886Z,25.17
2022-10-17T13:39:54.796Z,25.17
2022-10-17T13:42:27.334Z,23.60
2022-10-17T13:44:55.654Z,25.63
2022-10-17T13:47:37.670Z,23.02
2022-10-17T13:50:26.438Z,22.00
2022-10-17T13:53:21.087Z,24.70
2022-10-17T13:56:30.305Z,26.20
2022-10-17T13:59:00.951Z,22.55
2022-10-17T14:01:29.518Z,22.60
2022-10-17T14:04:08.375Z,20.42
2022-10-17T14:06:46.319Z,22.02
2022-10-17T14:09:25.663Z,21.40
2022-10-17T14:14:26.365Z,23.77
2022-10-17T14:16:54.100Z,24.25
2022-10-17T14:19:34.979Z,24.85
2022-10-17T14:22:18.322Z,31.98
2022-10-17T14:24:46.195Z,32.20
2022-10-17T14:27:42.430Z,35.88
2022-10-17T14:30:58.067Z,40.53
2022-10-17T14:33:26.557Z,28.27
2022-10-17T14:35:56.171Z,32.70
2022-10-17T14:38:23.708Z,25.88
2022-10-17T14:41:23.544Z,30.77
2022-10-17T14:44:00.654Z,31.70
2022-10-17T14:46:28.261Z,30.83
2022-10-17T14:49:02.833Z,28.65
2022-10-17T14:51:39.970Z,26.85
2022-10-17T14:54:23.760Z,44.03
2022-10-17T14:56:53.724Z,40.17
2022-10-17T14:59:51.687Z,31.15
2022-10-17T15:02:12.180Z,33.63
2022-10-17T15:04:39.210Z,36.85
2022-10-17T15:07:06.689Z,40.08
2022-10-17T15:09:33.816Z,34.95
2022-10-17T15:12:02.914Z,36.40
2022-10-17T15:14:30.246Z,35.38
2022-10-17T15:16:57.396Z,34.47
2022-10-17T15:19:24.386Z,43.03
2022-10-17T15:21:51.595Z,41.30
2022-10-17T15:24:18.700Z,53.03
2022-10-17T15:26:47.313Z,35.42
2022-10-17T15:29:15.687Z,36.53
2022-10-17T15:31:42.973Z,37.88
2022-10-17T15:34:11.736Z,40.35
2022-10-17T15:36:41.618Z,35.90
2022-10-17T15:39:10.032Z,39.65
2022-10-17T15:41:37.335Z,39.15
2022-10-17T15:44:04.648Z,47.60
2022-10-17T15:46:35.432Z,48.80
2022-10-17T15:49:06.044Z,46.35
2022-10-17T15:51:33.748Z,39.30
2022-10-17T15:54:04.929Z,49.58
2022-10-17T15:56:38.937Z,44.07
2022-10-17T15:59:12.832Z,49.75
2022-10-17T16:01:43.012Z,40.72
2022-10-17T16:04:13.479Z,49.42
2022-10-17T16:06:41.114Z,40.58
2022-10-17T16:09:08.556Z,46.70
2022-10-17T16:11:38.978Z,42.42
2022-10-17T16:14:12.159Z,53.13
2022-10-17T16:16:39.561Z,40.88
2022-10-17T16:19:06.806Z,41.00
2022-10-17T16:21:38.072Z,43.25
2022-10-17T16:24:06.098Z,49.67
2022-10-17T16:26:35.372Z,48.83
2022-10-17T16:29:04.727Z,39.70
2022-10-17T16:31:40.398Z,54.80
2022-10-17T16:34:15.543Z,79.00
2022-10-17T16:36:43.006Z,60.03
2022-10-17T16:39:10.073Z,56.35
2022-10-17T16:41:39.044Z,51.05
2022-10-17T16:44:14.827Z,49.95
2022-10-17T16:46:42.138Z,63.70
2022-10-17T16:49:10.213Z,53.80
2022-10-17T16:51:37.613Z,58.05
2022-10-17T16:54:04.834Z,64.93
2022-10-17T16:56:32.993Z,46.70
2022-10-17T16:59:01.033Z,57.42
2022-10-17T17:01:31.559Z,48.08
2022-10-17T17:03:58.874Z,55.65
2022-10-17T17:06:28.974Z,55.38
2022-10-17T17:08:56.633Z,53.50
2022-10-17T17:11:27.597Z,56.20
2022-10-17T17:13:59.015Z,57.53
2022-10-17T17:16:27.836Z,53.90
2022-10-17T17:18:57.019Z,52.55
2022-10-17T17:21:24.585Z,53.28
2022-10-17T17:23:51.878Z,48.55
2022-10-17T17:26:22.946Z,45.83
2022-10-17T17:28:51.449Z,49.90
2022-10-17T17:31:22.359Z,52.75
2022-10-17T17:33:50.178Z,56.72
2022-10-17T17:36:20.767Z,49.15
2022-10-17T17:38:49.230Z,53.03
2022-10-17T17:41:18.418Z,49.35
2022-10-17T17:43:46.904Z,52.47
2022-10-17T17:46:16.638Z,47.63
2022-10-17T17:48:45.264Z,48.78
2022-10-17T17:51:15.517Z,46.42
2022-10-17T17:53:42.784Z,48.55
2022-10-17T17:56:18.009Z,49.97
2022-10-17T17:58:48.512Z,46.47
2022-10-17T18:01:21.291Z,48.42
2022-10-17T18:03:49.934Z,44.00
2022-10-17T18:06:18.092Z,44.53
2022-10-17T18:08:48.022Z,50.17
2022-10-17T18:11:18.319Z,42.88
2022-10-17T18:13:52.524Z,44.35
2022-10-17T18:16:19.751Z,40.92
2022-10-17T18:18:46.784Z,43.60
2022-10-17T18:21:14.492Z,46.00
2022-10-17T18:23:45.019Z,45.70
2022-10-17T18:26:12.829Z,48.90
2022-10-17T18:31:26.573Z,43.88
2022-10-17T18:33:55.048Z,44.88
2022-10-17T18:36:23.240Z,44.05
2022-10-17T18:38:50.240Z,46.05
2022-10-17T18:41:20.266Z,44.22
2022-10-17T18:43:48.976Z,48.72
2022-10-17T18:46:18.482Z,50.17
2022-10-17T18:48:46.690Z,52.70
2022-10-17T18:51:16.446Z,47.78
2022-10-17T18:53:50.302Z,48.92
2022-10-17T18:56:18.673Z,57.83
2022-10-17T18:58:46.366Z,50.40
2022-10-17T19:01:19.293Z,57.47
2022-10-17T19:03:50.948Z,48.75
2022-10-17T19:06:21.106Z,44.95
2022-10-17T19:08:48.709Z,43.95
2022-10-17T19:11:24.769Z,41.67
2022-10-17T19:13:52.834Z,48.55
2022-10-17T19:16:23.068Z,45.45
2022-10-17T19:19:01.952Z,45.20
2022-10-17T19:21:29.306Z,44.25
2022-10-17T19:23:59.316Z,45.10
2022-10-17T19:26:28.807Z,41.67
2022-10-17T19:28:56.590Z,44.35
2022-10-17T19:31:27.006Z,39.13
2022-10-17T19:33:56.259Z,41.97
2022-10-17T19:36:30.492Z,39.10
2022-10-17T19:39:03.543Z,41.85
2022-10-17T19:41:30.996Z,47.75
2022-10-17T19:43:59.567Z,41.17
2022-10-17T19:46:29.057Z,45.95
2022-10-17T19:48:56.562Z,42.80
2022-10-17T19:51:25.137Z,38.60
2022-10-17T19:53:53.969Z,37.50
2022-10-17T19:56:22.906Z,45.88
2022-10-17T19:58:50.535Z,54.13
2022-10-17T20:01:20.909Z,40.05
2022-10-17T20:03:51.293Z,35.22
2022-10-17T20:06:19.239Z,38.03
2022-10-17T20:08:46.305Z,39.35
2022-10-17T20:11:19.500Z,40.90
2022-10-17T20:13:47.867Z,43.60
2022-10-17T20:16:21.397Z,44.63
2022-10-17T20:18:49.923Z,41.63
2022-10-17T20:21:21.391Z,45.08
2022-10-17T20:23:48.487Z,35.38
2022-10-17T20:26:26.323Z,40.30
2022-10-17T20:29:09.019Z,43.13
2022-10-17T20:31:36.622Z,55.72
2022-10-17T20:34:04.177Z,51.70
2022-10-17T20:36:32.369Z,54.53
2022-10-17T20:38:59.634Z,48.65
2022-10-17T20:41:27.279Z,44.33
2022-10-17T20:43:55.311Z,41.42
2022-10-17T20:46:35.830Z,58.08
2022-10-17T20:49:06.069Z,83.35
2022-10-17T20:51:34.642Z,58.50
2022-10-17T20:54:02.714Z,50.60
2022-10-17T20:56:31.926Z,49.45
2022-10-17T20:59:01.825Z,45.22
2022-10-17T21:01:30.837Z,44.30
2022-10-17T21:04:06.105Z,36.67
2022-10-17T21:06:38.307Z,36.28
2022-10-17T21:09:06.026Z,41.65
2022-10-17T21:11:33.449Z,45.33
2022-10-17T21:14:03.608Z,44.90
2022-10-17T21:16:33.402Z,38.67
2022-10-17T21:19:01.075Z,41.30
2022-10-17T21:21:36.864Z,42.05
2022-10-17T21:24:12.465Z,46.33
2022-10-17T21:26:41.772Z,47.63
2022-10-17T21:29:09.868Z,47.40
2022-10-17T21:31:39.068Z,57.75
2022-10-17T21:34:11.761Z,42.95
2022-10-17T21:36:39.248Z,46.30
2022-10-17T21:39:09.206Z,41.28
2022-10-17T21:41:36.427Z,42.50
2022-10-17T21:48:27.819Z,40.97
2022-10-17T21:51:13.674Z,38.60
2022-10-17T21:58:42.259Z,36.13
2022-10-17T22:28:39.097Z,39.88
2022-10-17T22:38:46.602Z,51.72
2022-10-17T22:41:13.755Z,46.40
2022-10-17T22:43:41.017Z,54.67
2022-10-17T22:46:08.341Z,57.00
2022-10-17T22:48:36.758Z,51.00
2022-10-17T22:51:03.806Z,49.47
2022-10-17T22:53:31.073Z,47.42
2022-10-17T22:56:00.774Z,48.75
2022-10-17T22:58:30.085Z,49.45
2022-10-17T23:00:57.330Z,41.83
2022-10-17T23:03:27.161Z,41.17
2022-10-17T23:05:54.700Z,37.80
2022-10-17T23:08:22.013Z,32.65
2022-10-17T23:10:49.002Z,30.52
2022-10-17T23:13:16.436Z,31.60
2022-10-17T23:15:43.589Z,36.90
2022-10-17T23:18:10.931Z,33.50
2022-10-17T23:20:38.272Z,35.30
2022-10-17T23:23:05.802Z,34.33
2022-10-17T23:25:35.933Z,37.05
2022-10-17T23:28:03.232Z,35.83
2022-10-17T23:30:32.273Z,33.58
2022-10-17T23:32:59.579Z,32.03
2022-10-17T23:35:26.549Z,32.90
2022-10-17T23:37:53.752Z,34.13
2022-10-17T23:40:20.868Z,32.85
2022-10-17T23:42:48.086Z,29.85
2022-10-17T23:45:15.226Z,30.73
2022-10-17T23:47:42.438Z,35.63
2022-10-17T23:50:09.535Z,32.42
2022-10-17T23:52:36.726Z,36.83
2022-10-17T23:55:04.474Z,34.75
2022-10-17T23:57:32.040Z,36.10
2022-10-17T23:59:59.349Z,32.33
